createdAt,value
2019-06-01T00:00:18.664Z,14.50
2019-06-01T00:02:54.970Z,14.40
2019-06-01T00:05:19.454Z,14.50
2019-06-01T00:07:49.436Z,14.50
2019-06-01T00:10:19.176Z,14.50
2019-06-01T00:12:49.556Z,14.50
2019-06-01T00:15:19.211Z,14.50
2019-06-01T00:17:49.977Z,14.40
2019-06-01T00:20:19.619Z,14.50
2019-06-01T00:22:49.486Z,14.50
2019-06-01T00:25:19.050Z,14.40
2019-06-01T00:27:48.851Z,14.30
2019-06-01T00:30:26.925Z,14.40
2019-06-01T00:32:51.277Z,14.30
2019-06-01T00:35:21.251Z,14.30
2019-06-01T00:37:51.782Z,14.30
2019-06-01T00:40:21.412Z,14.30
2019-06-01T00:42:50.873Z,14.20
2019-06-01T00:45:20.484Z,14.20
2019-06-01T00:47:50.903Z,14.20
2019-06-01T00:50:20.829Z,14.20
2019-06-01T00:52:51.384Z,14.10
2019-06-01T00:55:20.947Z,14.10
2019-06-01T00:57:51.823Z,14.10
2019-06-01T01:00:21.527Z,14.00
2019-06-01T01:02:52.121Z,14.00
2019-06-01T01:05:22.784Z,13.90
2019-06-01T01:07:53.546Z,13.90
2019-06-01T01:10:23.559Z,13.90
2019-06-01T01:13:12.868Z,13.90
2019-06-01T01:15:42.389Z,13.80
2019-06-01T01:18:12.810Z,13.80
2019-06-01T01:20:42.344Z,13.80
2019-06-01T01:23:11.919Z,13.70
2019-06-01T01:25:41.473Z,13.70
2019-06-01T01:28:11.108Z,13.70
2019-06-01T01:30:41.542Z,13.60
2019-06-01T01:33:10.996Z,13.60
2019-06-01T01:35:40.464Z,13.50
2019-06-01T01:38:10.114Z,13.50
2019-06-01T01:40:39.619Z,13.50
2019-06-01T01:43:09.112Z,13.40
2019-06-01T01:45:38.573Z,13.40
2019-06-01T01:48:08.131Z,13.30
2019-06-01T01:50:37.753Z,13.30
2019-06-01T01:53:07.245Z,13.30
2019-06-01T01:55:36.974Z,13.20
2019-06-01T01:58:07.494Z,13.20
2019-06-01T02:00:54.039Z,13.20
2019-06-01T02:03:21.836Z,13.20
2019-06-01T02:05:51.350Z,13.10
2019-06-01T02:08:21.260Z,13.10
2019-06-01T02:10:51.189Z,13.10
2019-06-01T02:13:20.771Z,13.00
2019-06-01T02:15:52.075Z,13.00
2019-06-01T02:18:21.467Z,13.00
2019-06-01T02:20:52.192Z,13.00
2019-06-01T02:23:21.809Z,13.00
2019-06-01T02:25:52.782Z,13.00
2019-06-01T02:28:22.435Z,13.00
2019-06-01T02:30:53.838Z,12.90
2019-06-01T02:33:23.112Z,12.90
2019-06-01T02:35:54.205Z,12.90
2019-06-01T02:38:23.858Z,12.80
2019-06-01T02:40:54.870Z,12.80
2019-06-01T02:43:24.575Z,12.80
2019-06-01T02:45:54.042Z,12.80
2019-06-01T02:48:23.532Z,12.70
2019-06-01T02:50:52.996Z,12.70
2019-06-01T02:53:22.542Z,12.70
2019-06-01T02:55:52.025Z,12.70
2019-06-01T02:58:21.507Z,12.70
2019-06-01T03:01:10.828Z,12.70
2019-06-01T03:03:40.823Z,12.70
2019-06-01T03:06:13.386Z,12.70
2019-06-01T03:08:45.327Z,12.70
2019-06-01T03:11:16.384Z,12.70
2019-06-01T03:13:49.822Z,12.60
2019-06-01T03:16:22.225Z,12.60
2019-06-01T03:18:53.338Z,12.60
2019-06-01T03:21:25.180Z,12.60
2019-06-01T03:23:59.745Z,12.60
2019-06-01T03:26:32.869Z,12.60
2019-06-01T03:29:07.135Z,12.60
2019-06-01T03:31:36.770Z,12.60
2019-06-01T03:34:08.704Z,12.60
2019-06-01T03:36:37.824Z,12.60
2019-06-01T03:39:10.164Z,12.60
2019-06-01T03:41:40.181Z,12.70
2019-06-01T03:44:09.735Z,12.70
2019-06-01T03:46:39.294Z,12.70
2019-06-01T03:49:09.794Z,12.80
2019-06-01T03:51:39.407Z,12.80
2019-06-01T03:54:10.148Z,12.90
2019-06-01T03:56:39.843Z,13.00
2019-06-01T03:59:09.661Z,13.00
2019-06-01T04:01:39.256Z,13.10
2019-06-01T04:04:09.326Z,13.20
2019-06-01T04:06:38.949Z,13.30
2019-06-01T04:09:09.935Z,13.40
2019-06-01T04:11:39.538Z,13.70
2019-06-01T04:14:09.895Z,14.60
2019-06-01T04:16:41.136Z,15.60
2019-06-01T04:19:11.845Z,16.60
2019-06-01T04:21:42.151Z,17.40
2019-06-01T04:24:12.340Z,18.10
2019-06-01T04:26:41.949Z,19.00
2019-06-01T04:29:12.587Z,19.40
2019-06-01T04:31:42.259Z,19.60
2019-06-01T04:34:13.008Z,19.50
2019-06-01T04:36:42.645Z,19.40
2019-06-01T04:39:13.620Z,19.30
2019-06-01T04:41:43.403Z,19.00
2019-06-01T04:44:14.210Z,18.80
2019-06-01T04:46:43.948Z,18.40
2019-06-01T04:49:14.706Z,18.40
2019-06-01T04:51:44.520Z,18.80
2019-06-01T04:54:15.546Z,19.20
2019-06-01T04:56:45.257Z,19.60
2019-06-01T04:59:15.333Z,20.10
2019-06-01T05:01:45.027Z,20.90
2019-06-01T05:04:15.498Z,21.50
2019-06-01T05:06:45.220Z,22.10
2019-06-01T05:09:15.774Z,22.50
2019-06-01T05:11:45.402Z,22.90
2019-06-01T05:14:16.553Z,23.40
2019-06-01T05:16:46.297Z,23.10
2019-06-01T05:19:16.610Z,23.00
2019-06-01T05:21:46.310Z,22.90
2019-06-01T05:24:17.156Z,22.80
2019-06-01T05:26:46.887Z,22.90
2019-06-01T05:29:17.950Z,22.70
2019-06-01T05:31:48.155Z,22.70
2019-06-01T05:34:18.341Z,23.50
2019-06-01T05:36:48.394Z,24.40
2019-06-01T05:39:18.684Z,24.80
2019-06-01T05:41:48.521Z,25.40
2019-06-01T05:44:19.285Z,25.60
2019-06-01T05:46:49.153Z,25.50
2019-06-01T05:49:18.726Z,25.60
2019-06-01T05:51:48.233Z,26.40
2019-06-01T05:54:18.914Z,27.70
2019-06-01T05:56:48.623Z,29.00
2019-06-01T05:59:18.377Z,30.00
2019-06-01T06:01:47.890Z,30.50
2019-06-01T06:04:17.584Z,30.70
2019-06-01T06:06:47.280Z,30.70
2019-06-01T06:09:17.172Z,31.00
2019-06-01T06:11:46.818Z,31.00
2019-06-01T06:14:17.469Z,31.30
2019-06-01T06:16:47.151Z,31.50
2019-06-01T06:19:20.256Z,31.40
2019-06-01T06:21:48.016Z,31.20
2019-06-01T06:24:18.578Z,30.60
2019-06-01T06:26:48.263Z,30.10
2019-06-01T06:29:18.830Z,30.10
2019-06-01T06:31:48.405Z,30.80
2019-06-01T06:34:17.871Z,31.30
2019-06-01T06:36:47.375Z,32.10
2019-06-01T06:39:17.888Z,32.60
2019-06-01T06:41:47.555Z,32.70
2019-06-01T06:44:17.136Z,33.10
2019-06-01T06:46:46.723Z,33.40
2019-06-01T06:49:17.062Z,33.80
2019-06-01T06:51:46.689Z,34.00
2019-06-01T06:54:16.219Z,33.20
2019-06-01T06:56:45.791Z,32.50
2019-06-01T06:59:16.172Z,31.70
2019-06-01T07:01:45.779Z,30.80
2019-06-01T07:04:15.370Z,30.60
2019-06-01T07:06:44.885Z,29.30
2019-06-01T07:09:14.339Z,28.70
2019-06-01T07:11:43.821Z,28.90
2019-06-01T07:14:13.378Z,29.40
2019-06-01T07:16:42.938Z,30.30
2019-06-01T07:19:12.430Z,29.80
2019-06-01T07:21:41.938Z,29.00
2019-06-01T07:24:11.423Z,28.10
2019-06-01T07:26:40.959Z,28.40
2019-06-01T07:29:10.450Z,29.30
2019-06-01T07:31:40.111Z,30.50
2019-06-01T07:34:09.671Z,30.30
2019-06-01T07:36:39.169Z,30.60
2019-06-01T07:39:08.708Z,31.60
2019-06-01T07:41:38.308Z,31.90
2019-06-01T07:44:08.063Z,31.30
2019-06-01T07:46:37.567Z,31.90
2019-06-01T07:49:07.130Z,33.00
2019-06-01T07:51:36.808Z,33.30
2019-06-01T07:54:06.328Z,33.20
2019-06-01T07:56:35.828Z,33.00
2019-06-01T07:59:05.364Z,33.40
2019-06-01T08:01:34.869Z,33.40
2019-06-01T08:04:04.375Z,33.80
2019-06-01T08:06:33.847Z,33.20
2019-06-01T08:09:04.867Z,33.00
2019-06-01T08:11:35.182Z,32.70
2019-06-01T08:14:05.475Z,32.10
2019-06-01T08:16:35.058Z,31.20
2019-06-01T08:19:04.728Z,31.50
2019-06-01T08:21:34.302Z,32.50
2019-06-01T08:24:04.370Z,32.50
2019-06-01T08:26:34.043Z,32.60
2019-06-01T08:29:03.495Z,33.00
2019-06-01T08:31:33.684Z,32.60
2019-06-01T08:34:03.529Z,32.40
2019-06-01T08:36:33.879Z,32.40
2019-06-01T08:39:04.964Z,32.30
2019-06-01T08:41:34.527Z,32.00
2019-06-01T08:44:04.466Z,32.00
2019-06-01T08:46:34.084Z,31.90
2019-06-01T08:49:03.727Z,32.50
2019-06-01T08:51:34.126Z,32.40
2019-06-01T08:54:04.032Z,31.30
2019-06-01T08:56:34.874Z,31.70
2019-06-01T08:59:04.775Z,32.20
2019-06-01T09:01:34.917Z,33.20
2019-06-01T09:04:04.822Z,34.70
2019-06-01T09:06:35.353Z,34.00
2019-06-01T09:09:11.520Z,34.00
2019-06-01T09:11:39.503Z,34.30
2019-06-01T09:14:09.162Z,34.80
2019-06-01T09:16:38.634Z,34.00
2019-06-01T09:19:11.160Z,32.30
2019-06-01T09:21:39.577Z,31.20
2019-06-01T09:24:09.212Z,30.70
2019-06-01T09:26:38.830Z,31.20
2019-06-01T09:29:08.280Z,31.60
2019-06-01T09:31:37.810Z,31.30
2019-06-01T09:34:07.290Z,31.50
2019-06-01T09:36:36.936Z,32.00
2019-06-01T09:39:08.876Z,32.80
2019-06-01T09:41:38.500Z,31.90
2019-06-01T09:44:07.993Z,31.50
2019-06-01T09:46:37.562Z,30.60
2019-06-01T09:49:07.143Z,31.10
2019-06-01T09:51:37.823Z,32.30
2019-06-01T09:54:07.483Z,33.10
2019-06-01T09:56:39.284Z,33.50
2019-06-01T09:59:08.405Z,33.70
2019-06-01T10:01:38.866Z,33.40
2019-06-01T10:04:10.188Z,32.70
2019-06-01T10:06:39.686Z,33.30
2019-06-01T10:09:10.132Z,31.80
2019-06-01T10:11:39.633Z,31.90
2019-06-01T10:14:09.183Z,32.20
2019-06-01T10:16:39.065Z,32.40
2019-06-01T10:19:08.582Z,33.00
2019-06-01T10:21:38.192Z,33.80
2019-06-01T10:24:07.769Z,33.60
2019-06-01T10:26:37.676Z,33.20
2019-06-01T10:29:07.325Z,33.00
2019-06-01T10:31:41.057Z,32.80
2019-06-01T10:34:08.129Z,32.40
2019-06-01T10:36:38.027Z,31.20
2019-06-01T10:39:08.942Z,31.00
2019-06-01T10:41:39.645Z,30.40
2019-06-01T10:44:09.291Z,29.90
2019-06-01T10:46:40.161Z,29.90
2019-06-01T10:49:09.909Z,30.40
2019-06-01T10:51:40.360Z,31.40
2019-06-01T10:54:10.089Z,32.00
2019-06-01T10:56:40.524Z,30.90
2019-06-01T10:59:10.247Z,30.50
2019-06-01T11:01:40.816Z,30.90
2019-06-01T11:04:10.553Z,30.80
2019-06-01T11:06:44.895Z,30.30
2019-06-01T11:09:11.468Z,30.50
2019-06-01T11:11:41.234Z,31.10
2019-06-01T11:14:10.785Z,30.90
2019-06-01T11:16:41.772Z,30.60
2019-06-01T11:19:11.513Z,30.60
2019-06-01T11:21:41.747Z,30.80
2019-06-01T11:24:11.413Z,30.00
2019-06-01T11:26:41.911Z,29.30
2019-06-01T11:29:11.591Z,28.80
2019-06-01T11:31:42.128Z,28.80
2019-06-01T11:34:11.865Z,28.40
2019-06-01T11:37:01.900Z,28.60
2019-06-01T11:39:12.676Z,29.00
2019-06-01T11:41:42.673Z,28.50
2019-06-01T11:44:12.225Z,28.00
2019-06-01T11:46:42.880Z,27.90
2019-06-01T11:49:12.520Z,28.20
2019-06-01T11:51:43.203Z,28.30
2019-06-01T11:54:12.963Z,28.30
2019-06-01T11:56:43.335Z,28.00
2019-06-01T11:59:12.993Z,27.80
2019-06-01T12:01:43.967Z,27.80
2019-06-01T12:04:13.850Z,27.80
2019-06-01T12:06:44.037Z,28.10
2019-06-01T12:09:13.768Z,28.10
2019-06-01T12:11:44.268Z,27.90
2019-06-01T12:14:13.917Z,27.70
2019-06-01T12:16:44.787Z,27.60
2019-06-01T12:19:14.602Z,27.60
2019-06-01T12:21:45.261Z,27.60
2019-06-01T12:24:14.830Z,27.60
2019-06-01T12:26:45.393Z,27.70
2019-06-01T12:29:14.959Z,27.90
2019-06-01T12:31:44.446Z,27.80
2019-06-01T12:34:13.940Z,27.60
2019-06-01T12:36:44.609Z,27.90
2019-06-01T12:39:14.222Z,28.20
2019-06-01T12:41:43.722Z,28.30
2019-06-01T12:44:14.164Z,28.10
2019-06-01T12:46:44.007Z,28.00
2019-06-01T12:49:13.691Z,27.90
2019-06-01T12:51:44.536Z,27.60
2019-06-01T12:54:14.074Z,27.80
2019-06-01T12:56:44.778Z,27.70
2019-06-01T12:59:14.437Z,27.70
2019-06-01T13:01:45.107Z,27.70
2019-06-01T13:04:14.846Z,27.70
2019-06-01T13:06:45.055Z,27.70
2019-06-01T13:09:15.637Z,27.60
2019-06-01T13:11:45.272Z,27.40
2019-06-01T13:14:14.778Z,27.40
2019-06-01T13:16:50.787Z,27.40
2019-06-01T13:19:15.471Z,27.30
2019-06-01T13:21:45.353Z,27.50
2019-06-01T13:24:15.099Z,27.70
2019-06-01T13:26:45.723Z,27.60
2019-06-01T13:29:15.271Z,28.00
2019-06-01T13:31:46.061Z,28.10
2019-06-01T13:34:15.895Z,28.00
2019-06-01T13:36:46.561Z,27.90
2019-06-01T13:39:16.240Z,27.60
2019-06-01T13:41:47.135Z,27.50
2019-06-01T13:44:16.954Z,27.30
2019-06-01T13:46:47.506Z,27.20
2019-06-01T13:49:17.008Z,27.30
2019-06-01T13:51:47.852Z,27.60
2019-06-01T13:54:17.864Z,27.70
2019-06-01T13:56:48.557Z,28.00
2019-06-01T13:59:18.377Z,27.90
2019-06-01T14:01:48.830Z,27.90
2019-06-01T14:04:18.441Z,28.10
2019-06-01T14:06:49.006Z,28.10
2019-06-01T14:09:21.797Z,28.00
2019-06-01T14:11:51.198Z,28.20
2019-06-01T14:14:21.087Z,28.20
2019-06-01T14:16:51.742Z,27.90
2019-06-01T14:19:21.449Z,28.00
2019-06-01T14:21:52.252Z,28.00
2019-06-01T14:24:21.984Z,27.90
2019-06-01T14:26:52.409Z,27.90
2019-06-01T14:29:22.623Z,27.70
2019-06-01T14:31:53.557Z,27.60
2019-06-01T14:34:23.721Z,27.50
2019-06-01T14:36:53.190Z,27.50
2019-06-01T14:39:22.710Z,27.30
2019-06-01T14:41:53.500Z,27.10
2019-06-01T14:44:23.165Z,27.10
2019-06-01T14:47:01.636Z,27.20
2019-06-01T14:49:24.040Z,27.30
2019-06-01T14:51:53.715Z,27.40
2019-06-01T14:54:23.183Z,27.40
2019-06-01T14:56:53.759Z,27.50
2019-06-01T14:59:23.573Z,27.50
2019-06-01T15:01:54.138Z,27.40
2019-06-01T15:04:23.887Z,27.40
2019-06-01T15:06:54.358Z,27.50
2019-06-01T15:09:24.031Z,27.60
2019-06-01T15:11:54.488Z,27.50
2019-06-01T15:14:24.104Z,27.50
2019-06-01T15:16:53.991Z,27.50
2019-06-01T15:19:23.592Z,27.50
2019-06-01T15:21:54.095Z,27.30
2019-06-01T15:24:24.153Z,27.40
2019-06-01T15:26:54.678Z,27.30
2019-06-01T15:29:24.214Z,27.30
2019-06-01T15:31:53.744Z,27.30
2019-06-01T15:34:23.217Z,27.50
2019-06-01T15:36:53.593Z,27.50
2019-06-01T15:39:25.267Z,27.50
2019-06-01T15:41:55.218Z,27.30
2019-06-01T15:44:24.844Z,27.30
2019-06-01T15:46:55.683Z,27.40
2019-06-01T15:49:25.807Z,27.50
2019-06-01T15:51:55.855Z,27.60
2019-06-01T15:54:25.904Z,27.40
2019-06-01T15:56:56.341Z,27.30
2019-06-01T15:59:25.926Z,27.40
2019-06-01T16:01:55.512Z,27.40
2019-06-01T16:04:25.017Z,27.30
2019-06-01T16:06:54.995Z,27.20
2019-06-01T16:09:39.205Z,27.20
2019-06-01T16:11:55.942Z,27.10
2019-06-01T16:14:26.268Z,27.00
2019-06-01T16:16:55.879Z,27.00
2019-06-01T16:19:25.521Z,27.00
2019-06-01T16:21:55.741Z,27.00
2019-06-01T16:24:25.378Z,26.80
2019-06-01T16:26:54.917Z,26.70
2019-06-01T16:29:25.609Z,26.70
2019-06-01T16:31:56.562Z,26.60
2019-06-01T16:34:26.267Z,26.50
2019-06-01T16:36:56.791Z,26.40
2019-06-01T16:39:26.343Z,26.50
2019-06-01T16:41:55.915Z,26.40
2019-06-01T16:44:25.487Z,26.40
2019-06-01T16:46:55.541Z,26.50
2019-06-01T16:49:27.321Z,26.50
2019-06-01T16:51:59.688Z,26.40
2019-06-01T16:54:30.708Z,26.40
2019-06-01T16:57:00.377Z,26.40
2019-06-01T16:59:29.915Z,26.40
2019-06-01T17:02:00.844Z,26.40
2019-06-01T17:04:30.617Z,26.40
2019-06-01T17:07:00.696Z,26.50
2019-06-01T17:09:30.360Z,26.50
2019-06-01T17:12:00.799Z,26.40
2019-06-01T17:14:30.858Z,26.40
2019-06-01T17:17:01.071Z,26.30
2019-06-01T17:19:30.831Z,26.40
2019-06-01T17:22:01.473Z,26.30
2019-06-01T17:24:31.077Z,26.20
2019-06-01T17:27:02.032Z,26.20
2019-06-01T17:29:31.739Z,26.20
2019-06-01T17:32:18.970Z,26.20
2019-06-01T17:34:32.615Z,26.20
2019-06-01T17:37:02.781Z,26.10
2019-06-01T17:39:32.320Z,26.10
2019-06-01T17:42:02.476Z,26.00
2019-06-01T17:44:32.117Z,26.00
2019-06-01T17:47:02.016Z,25.90
2019-06-01T17:49:31.597Z,25.90
2019-06-01T17:52:01.772Z,25.70
2019-06-01T17:54:31.496Z,25.60
2019-06-01T17:57:01.134Z,25.50
2019-06-01T17:59:30.617Z,25.40
2019-06-01T18:02:01.632Z,25.40
2019-06-01T18:04:31.367Z,25.40
2019-06-01T18:07:01.747Z,25.50
2019-06-01T18:09:31.428Z,25.60
2019-06-01T18:12:01.958Z,25.50
2019-06-01T18:14:31.630Z,25.40
2019-06-01T18:17:02.144Z,25.30
2019-06-01T18:19:31.668Z,25.30
2019-06-01T18:22:02.515Z,25.20
2019-06-01T18:24:32.176Z,25.10
2019-06-01T18:27:02.383Z,25.10
2019-06-01T18:29:32.087Z,25.00
2019-06-01T18:32:03.015Z,24.90
2019-06-01T18:34:32.722Z,24.90
2019-06-01T18:37:03.158Z,24.90
2019-06-01T18:39:33.029Z,24.70
2019-06-01T18:42:03.750Z,24.70
2019-06-01T18:44:33.754Z,24.50
2019-06-01T18:47:03.745Z,24.40
2019-06-01T18:49:33.261Z,24.30
2019-06-01T18:52:04.122Z,24.10
2019-06-01T18:54:33.905Z,24.00
2019-06-01T18:57:10.960Z,23.90
2019-06-01T18:59:34.657Z,23.80
2019-06-01T19:02:04.324Z,23.60
2019-06-01T19:04:33.840Z,23.50
2019-06-01T19:07:03.396Z,23.40
2019-06-01T19:09:32.921Z,23.40
2019-06-01T19:12:02.404Z,23.40
2019-06-01T19:14:32.000Z,23.30
2019-06-01T19:17:01.723Z,23.20
2019-06-01T19:19:31.329Z,23.10
2019-06-01T19:22:00.895Z,23.00
2019-06-01T19:24:30.563Z,22.90
2019-06-01T19:27:00.069Z,22.70
2019-06-01T19:29:29.589Z,22.60
2019-06-01T19:31:59.434Z,22.50
2019-06-01T19:34:29.547Z,22.40
2019-06-01T19:37:01.460Z,22.40
2019-06-01T19:39:32.868Z,22.20
2019-06-01T19:42:02.357Z,22.10
2019-06-01T19:44:31.913Z,21.90
2019-06-01T19:47:01.391Z,21.80
2019-06-01T19:49:30.883Z,21.70
2019-06-01T19:52:00.535Z,21.60
2019-06-01T19:54:30.031Z,21.60
2019-06-01T19:56:59.595Z,21.50
2019-06-01T19:59:29.658Z,21.50
2019-06-01T20:01:59.177Z,21.50
2019-06-01T20:04:28.705Z,21.40
2019-06-01T20:06:58.301Z,21.30
2019-06-01T20:09:27.828Z,21.20
2019-06-01T20:12:01.905Z,21.20
2019-06-01T20:14:28.655Z,21.10
2019-06-01T20:16:58.161Z,21.00
2019-06-01T20:19:27.681Z,20.90
2019-06-01T20:21:57.338Z,20.80
2019-06-01T20:24:27.014Z,20.80
2019-06-01T20:26:56.622Z,20.70
2019-06-01T20:29:26.133Z,20.60
2019-06-01T20:31:55.583Z,20.50
2019-06-01T20:34:25.117Z,20.40
2019-06-01T20:36:54.639Z,20.40
2019-06-01T20:39:24.534Z,20.40
2019-06-01T20:41:54.081Z,20.30
2019-06-01T20:44:23.596Z,20.30
2019-06-01T20:46:53.076Z,20.30
2019-06-01T20:49:22.746Z,20.20
2019-06-01T20:51:52.277Z,20.20
2019-06-01T20:54:23.141Z,20.10
2019-06-01T20:56:52.788Z,20.10
2019-06-01T20:59:23.475Z,20.00
2019-06-01T21:01:54.029Z,19.90
2019-06-01T21:04:24.312Z,19.90
2019-06-01T21:06:54.445Z,19.80
2019-06-01T21:09:24.347Z,19.80
2019-06-01T21:11:54.489Z,19.80
2019-06-01T21:14:24.029Z,19.80
2019-06-01T21:16:53.565Z,19.70
2019-06-01T21:19:23.048Z,19.70
2019-06-01T21:21:52.579Z,19.70
2019-06-01T21:24:23.104Z,19.60
2019-06-01T21:26:52.969Z,19.60
2019-06-01T21:29:22.987Z,19.70
2019-06-01T21:31:52.657Z,19.70
2019-06-01T21:34:22.669Z,19.70
2019-06-01T21:36:53.437Z,19.70
2019-06-01T21:39:23.546Z,19.70
2019-06-01T21:41:53.683Z,19.60
2019-06-01T21:44:23.741Z,19.60
2019-06-01T21:46:53.305Z,19.60
2019-06-01T21:49:24.033Z,19.60
2019-06-01T21:51:53.675Z,19.50
2019-06-01T21:54:24.451Z,19.50
2019-06-01T21:56:54.654Z,19.40
2019-06-01T21:59:24.936Z,19.40
2019-06-01T22:01:54.734Z,19.40
2019-06-01T22:04:25.639Z,19.40
2019-06-01T22:06:55.369Z,19.50
2019-06-01T22:09:25.289Z,19.40
2019-06-01T22:11:55.047Z,19.40
2019-06-01T22:14:26.032Z,19.40
2019-06-01T22:16:55.676Z,19.40
2019-06-01T22:19:25.902Z,19.40
2019-06-01T22:21:55.765Z,19.40
2019-06-01T22:24:25.963Z,19.40
2019-06-01T22:26:55.492Z,19.40
2019-06-01T22:29:24.965Z,19.40
2019-06-01T22:31:54.458Z,19.30
2019-06-01T22:34:24.862Z,19.30
2019-06-01T22:36:54.521Z,19.30
2019-06-01T22:39:24.759Z,19.20
2019-06-01T22:41:54.390Z,19.30
2019-06-01T22:44:24.142Z,19.30
2019-06-01T22:46:53.704Z,19.20
2019-06-01T22:49:24.626Z,19.20
2019-06-01T22:51:55.811Z,19.20
2019-06-01T22:54:25.317Z,19.20
2019-06-01T22:56:54.792Z,19.10
2019-06-01T22:59:24.572Z,19.10
2019-06-01T23:01:54.153Z,19.10
2019-06-01T23:04:24.953Z,19.10
2019-06-01T23:06:54.596Z,19.00
2019-06-01T23:09:25.547Z,19.00
2019-06-01T23:11:55.230Z,19.00
2019-06-01T23:14:25.289Z,19.00
2019-06-01T23:16:54.871Z,18.90
2019-06-01T23:19:25.692Z,18.90
2019-06-01T23:21:55.243Z,18.90
2019-06-01T23:24:26.003Z,18.90
2019-06-01T23:26:58.320Z,18.80
2019-06-01T23:29:28.103Z,18.80
2019-06-01T23:31:57.736Z,18.80
2019-06-01T23:34:28.556Z,18.80
2019-06-01T23:36:58.196Z,18.80
2019-06-01T23:39:28.766Z,18.80
2019-06-01T23:41:58.389Z,18.70
2019-06-01T23:44:31.679Z,18.70
2019-06-01T23:46:59.096Z,18.70
2019-06-01T23:49:29.254Z,18.70
2019-06-01T23:51:58.822Z,18.60
2019-06-01T23:54:29.354Z,18.60
2019-06-01T23:56:59.261Z,18.60
2019-06-01T23:59:29.525Z,18.60
